sensor_id;sensor_type;location;lat;lon;timestamp;P1;durP1;ratioP1;P2;durP2;ratioP2
73170;SDS011;61381;50.118;19.962;2023-05-07T00:02:52;29.42;;;13.25;;
73170;SDS011;61381;50.118;19.962;2023-05-07T00:07:54;31.45;;;14.85;;
73170;SDS011;61381;50.118;19.962;2023-05-07T00:12:55;38.35;;;14.95;;
73170;SDS011;61381;50.118;19.962;2023-05-07T00:17:56;33.35;;;14.63;;
73170;SDS011;61381;50.118;19.962;2023-05-07T00:22:58;34.67;;;15.77;;
73170;SDS011;61381;50.118;19.962;2023-05-07T00:27:59;35.63;;;14.82;;
73170;SDS011;61381;50.118;19.962;2023-05-07T00:33:00;34.92;;;15.35;;
73170;SDS011;61381;50.118;19.962;2023-05-07T00:38:03;34.70;;;14.98;;
73170;SDS011;61381;50.118;19.962;2023-05-07T00:43:04;40.65;;;16.85;;
73170;SDS011;61381;50.118;19.962;2023-05-07T00:48:05;40.78;;;17.55;;
73170;SDS011;61381;50.118;19.962;2023-05-07T00:53:07;38.72;;;18.75;;
73170;SDS011;61381;50.118;19.962;2023-05-07T00:58:09;39.70;;;17.23;;
73170;SDS011;61381;50.118;19.962;2023-05-07T01:03:10;36.63;;;15.57;;
73170;SDS011;61381;50.118;19.962;2023-05-07T01:08:12;43.50;;;17.05;;
73170;SDS011;61381;50.118;19.962;2023-05-07T01:13:14;41.33;;;19.05;;
73170;SDS011;61381;50.118;19.962;2023-05-07T01:18:16;46.80;;;19.00;;
73170;SDS011;61381;50.118;19.962;2023-05-07T01:23:19;43.00;;;17.48;;
73170;SDS011;61381;50.118;19.962;2023-05-07T01:28:20;41.10;;;16.27;;
73170;SDS011;61381;50.118;19.962;2023-05-07T01:33:21;47.15;;;19.30;;
73170;SDS011;61381;50.118;19.962;2023-05-07T01:38:24;40.95;;;15.63;;
73170;SDS011;61381;50.118;19.962;2023-05-07T01:43:25;44.50;;;18.95;;
73170;SDS011;61381;50.118;19.962;2023-05-07T01:48:27;40.05;;;15.43;;
73170;SDS011;61381;50.118;19.962;2023-05-07T01:53:30;34.10;;;15.65;;
73170;SDS011;61381;50.118;19.962;2023-05-07T01:58:36;28.17;;;11.75;;
73170;SDS011;61381;50.118;19.962;2023-05-07T02:03:37;33.47;;;14.55;;
73170;SDS011;61381;50.118;19.962;2023-05-07T02:08:39;20.08;;;10.73;;
73170;SDS011;61381;50.118;19.962;2023-05-07T02:13:41;25.75;;;10.35;;
73170;SDS011;61381;50.118;19.962;2023-05-07T02:18:42;23.40;;;9.73;;
73170;SDS011;61381;50.118;19.962;2023-05-07T02:23:44;24.63;;;11.65;;
73170;SDS011;61381;50.118;19.962;2023-05-07T02:28:45;11.45;;;6.65;;
73170;SDS011;61381;50.118;19.962;2023-05-07T02:33:46;19.45;;;9.48;;
73170;SDS011;61381;50.118;19.962;2023-05-07T02:38:48;20.35;;;10.38;;
73170;SDS011;61381;50.118;19.962;2023-05-07T02:43:49;18.08;;;8.73;;
73170;SDS011;61381;50.118;19.962;2023-05-07T02:48:50;17.35;;;9.90;;
73170;SDS011;61381;50.118;19.962;2023-05-07T02:53:53;12.52;;;6.13;;
73170;SDS011;61381;50.118;19.962;2023-05-07T02:58:54;10.55;;;6.22;;
73170;SDS011;61381;50.118;19.962;2023-05-07T03:03:55;8.05;;;5.55;;
73170;SDS011;61381;50.118;19.962;2023-05-07T03:08:57;8.98;;;5.32;;
73170;SDS011;61381;50.118;19.962;2023-05-07T03:13:58;10.57;;;5.15;;
73170;SDS011;61381;50.118;19.962;2023-05-07T03:18:59;7.75;;;4.30;;
73170;SDS011;61381;50.118;19.962;2023-05-07T03:24:02;5.93;;;3.45;;
73170;SDS011;61381;50.118;19.962;2023-05-07T03:29:03;6.97;;;4.53;;
73170;SDS011;61381;50.118;19.962;2023-05-07T03:34:04;7.95;;;3.85;;
73170;SDS011;61381;50.118;19.962;2023-05-07T03:39:06;8.18;;;5.15;;
73170;SDS011;61381;50.118;19.962;2023-05-07T03:44:07;7.30;;;4.22;;
73170;SDS011;61381;50.118;19.962;2023-05-07T03:49:08;7.25;;;4.13;;
73170;SDS011;61381;50.118;19.962;2023-05-07T03:54:11;4.55;;;3.28;;
73170;SDS011;61381;50.118;19.962;2023-05-07T03:59:12;5.55;;;3.60;;
73170;SDS011;61381;50.118;19.962;2023-05-07T04:04:14;4.78;;;3.00;;
73170;SDS011;61381;50.118;19.962;2023-05-07T04:09:16;6.47;;;3.60;;
73170;SDS011;61381;50.118;19.962;2023-05-07T04:14:17;6.22;;;4.03;;
73170;SDS011;61381;50.118;19.962;2023-05-07T04:19:18;4.75;;;3.50;;
73170;SDS011;61381;50.118;19.962;2023-05-07T04:24:20;7.53;;;4.55;;
73170;SDS011;61381;50.118;19.962;2023-05-07T04:29:22;5.85;;;4.50;;
73170;SDS011;61381;50.118;19.962;2023-05-07T04:34:23;7.25;;;3.70;;
73170;SDS011;61381;50.118;19.962;2023-05-07T04:39:25;6.35;;;3.63;;
73170;SDS011;61381;50.118;19.962;2023-05-07T04:44:26;6.80;;;3.80;;
73170;SDS011;61381;50.118;19.962;2023-05-07T04:49:27;4.18;;;3.20;;
73170;SDS011;61381;50.118;19.962;2023-05-07T04:54:29;3.95;;;2.50;;
73170;SDS011;61381;50.118;19.962;2023-05-07T04:59:30;4.68;;;3.40;;
73170;SDS011;61381;50.118;19.962;2023-05-07T05:04:32;3.67;;;2.78;;
73170;SDS011;61381;50.118;19.962;2023-05-07T05:09:34;4.55;;;2.30;;
73170;SDS011;61381;50.118;19.962;2023-05-07T05:14:35;4.03;;;2.70;;
73170;SDS011;61381;50.118;19.962;2023-05-07T05:19:36;5.07;;;2.90;;
73170;SDS011;61381;50.118;19.962;2023-05-07T05:24:39;5.68;;;3.13;;
73170;SDS011;61381;50.118;19.962;2023-05-07T05:29:40;3.80;;;3.00;;
73170;SDS011;61381;50.118;19.962;2023-05-07T05:34:41;4.78;;;3.40;;
73170;SDS011;61381;50.118;19.962;2023-05-07T05:39:43;5.10;;;3.00;;
73170;SDS011;61381;50.118;19.962;2023-05-07T05:44:44;4.53;;;3.03;;
73170;SDS011;61381;50.118;19.962;2023-05-07T05:49:45;7.75;;;3.65;;
73170;SDS011;61381;50.118;19.962;2023-05-07T05:54:48;4.43;;;2.55;;
73170;SDS011;61381;50.118;19.962;2023-05-07T05:59:48;5.57;;;3.40;;
73170;SDS011;61381;50.118;19.962;2023-05-07T06:04:50;4.18;;;2.50;;
73170;SDS011;61381;50.118;19.962;2023-05-07T06:09:52;4.68;;;2.97;;
73170;SDS011;61381;50.118;19.962;2023-05-07T06:14:53;5.85;;;3.13;;
73170;SDS011;61381;50.118;19.962;2023-05-07T06:19:54;4.00;;;2.72;;
73170;SDS011;61381;50.118;19.962;2023-05-07T06:24:56;4.15;;;2.97;;
73170;SDS011;61381;50.118;19.962;2023-05-07T06:29:57;3.78;;;2.60;;
73170;SDS011;61381;50.118;19.962;2023-05-07T06:34:58;3.38;;;2.30;;
73170;SDS011;61381;50.118;19.962;2023-05-07T06:40:01;3.35;;;2.40;;
73170;SDS011;61381;50.118;19.962;2023-05-07T06:45:02;4.90;;;2.70;;
73170;SDS011;61381;50.118;19.962;2023-05-07T06:50:04;3.55;;;2.60;;
73170;SDS011;61381;50.118;19.962;2023-05-07T06:55:07;6.07;;;3.40;;
73170;SDS011;61381;50.118;19.962;2023-05-07T07:00:09;4.72;;;2.88;;
73170;SDS011;61381;50.118;19.962;2023-05-07T07:05:11;3.78;;;2.28;;
73170;SDS011;61381;50.118;19.962;2023-05-07T07:10:13;4.03;;;2.10;;
73170;SDS011;61381;50.118;19.962;2023-05-07T07:15:14;4.35;;;2.88;;
73170;SDS011;61381;50.118;19.962;2023-05-07T07:20:15;3.22;;;1.77;;
73170;SDS011;61381;50.118;19.962;2023-05-07T07:25:18;4.88;;;2.90;;
73170;SDS011;61381;50.118;19.962;2023-05-07T07:30:19;4.10;;;2.53;;
73170;SDS011;61381;50.118;19.962;2023-05-07T07:35:20;5.25;;;2.03;;
73170;SDS011;61381;50.118;19.962;2023-05-07T07:40:22;3.95;;;2.75;;
73170;SDS011;61381;50.118;19.962;2023-05-07T07:45:24;4.43;;;2.65;;
73170;SDS011;61381;50.118;19.962;2023-05-07T07:50:25;4.88;;;3.05;;
73170;SDS011;61381;50.118;19.962;2023-05-07T07:55:27;5.32;;;4.28;;
73170;SDS011;61381;50.118;19.962;2023-05-07T08:00:28;6.78;;;4.10;;
73170;SDS011;61381;50.118;19.962;2023-05-07T08:05:29;6.00;;;4.68;;
73170;SDS011;61381;50.118;19.962;2023-05-07T08:10:32;6.28;;;3.78;;
73170;SDS011;61381;50.118;19.962;2023-05-07T08:15:33;7.65;;;5.45;;
73170;SDS011;61381;50.118;19.962;2023-05-07T08:20:34;8.05;;;5.50;;
73170;SDS011;61381;50.118;19.962;2023-05-07T08:25:37;8.80;;;5.97;;
73170;SDS011;61381;50.118;19.962;2023-05-07T08:30:38;11.05;;;6.28;;
73170;SDS011;61381;50.118;19.962;2023-05-07T08:35:39;8.77;;;5.38;;
73170;SDS011;61381;50.118;19.962;2023-05-07T08:40:42;8.80;;;4.82;;
73170;SDS011;61381;50.118;19.962;2023-05-07T08:45:43;8.25;;;4.53;;
73170;SDS011;61381;50.118;19.962;2023-05-07T08:50:46;9.45;;;5.20;;
73170;SDS011;61381;50.118;19.962;2023-05-07T08:55:48;7.50;;;5.43;;
73170;SDS011;61381;50.118;19.962;2023-05-07T09:00:49;6.95;;;5.43;;
73170;SDS011;61381;50.118;19.962;2023-05-07T09:05:53;7.20;;;4.55;;
73170;SDS011;61381;50.118;19.962;2023-05-07T09:10:56;6.93;;;4.32;;
73170;SDS011;61381;50.118;19.962;2023-05-07T09:15:57;7.80;;;5.32;;
73170;SDS011;61381;50.118;19.962;2023-05-07T09:20:58;5.88;;;4.53;;
73170;SDS011;61381;50.118;19.962;2023-05-07T09:26:01;6.55;;;4.63;;
73170;SDS011;61381;50.118;19.962;2023-05-07T09:31:02;7.15;;;4.90;;
73170;SDS011;61381;50.118;19.962;2023-05-07T09:36:04;7.80;;;4.70;;
73170;SDS011;61381;50.118;19.962;2023-05-07T09:41:08;6.18;;;3.53;;
73170;SDS011;61381;50.118;19.962;2023-05-07T09:46:11;5.68;;;3.85;;
73170;SDS011;61381;50.118;19.962;2023-05-07T09:51:18;9.23;;;5.35;;
73170;SDS011;61381;50.118;19.962;2023-05-07T09:56:26;5.70;;;3.75;;
73170;SDS011;61381;50.118;19.962;2023-05-07T10:01:29;5.68;;;3.70;;
73170;SDS011;61381;50.118;19.962;2023-05-07T10:06:31;6.53;;;4.57;;
73170;SDS011;61381;50.118;19.962;2023-05-07T10:11:34;6.78;;;4.28;;
73170;SDS011;61381;50.118;19.962;2023-05-07T10:16:36;6.10;;;5.10;;
73170;SDS011;61381;50.118;19.962;2023-05-07T10:21:37;5.57;;;4.10;;
73170;SDS011;61381;50.118;19.962;2023-05-07T10:26:41;6.63;;;4.57;;
73170;SDS011;61381;50.118;19.962;2023-05-07T10:31:48;7.60;;;5.07;;
73170;SDS011;61381;50.118;19.962;2023-05-07T10:36:55;6.95;;;4.53;;
73170;SDS011;61381;50.118;19.962;2023-05-07T10:42:04;6.55;;;4.63;;
73170;SDS011;61381;50.118;19.962;2023-05-07T10:47:08;5.97;;;4.65;;
73170;SDS011;61381;50.118;19.962;2023-05-07T10:52:11;6.47;;;4.30;;
73170;SDS011;61381;50.118;19.962;2023-05-07T11:08:05;4.93;;;3.42;;
73170;SDS011;61381;50.118;19.962;2023-05-07T11:13:08;4.50;;;3.70;;
73170;SDS011;61381;50.118;19.962;2023-05-07T11:18:10;3.90;;;3.10;;
73170;SDS011;61381;50.118;19.962;2023-05-07T11:28:47;5.70;;;3.97;;
73170;SDS011;61381;50.118;19.962;2023-05-07T11:33:49;4.95;;;3.70;;
73170;SDS011;61381;50.118;19.962;2023-05-07T11:38:50;2.95;;;2.58;;
73170;SDS011;61381;50.118;19.962;2023-05-07T11:43:56;13.85;;;6.57;;
73170;SDS011;61381;50.118;19.962;2023-05-07T11:53:58;8.25;;;4.72;;
73170;SDS011;61381;50.118;19.962;2023-05-07T11:59:01;9.48;;;5.93;;
73170;SDS011;61381;50.118;19.962;2023-05-07T12:04:02;9.80;;;6.63;;
73170;SDS011;61381;50.118;19.962;2023-05-07T12:09:04;5.22;;;3.03;;
73170;SDS011;61381;50.118;19.962;2023-05-07T12:14:06;5.38;;;3.45;;
73170;SDS011;61381;50.118;19.962;2023-05-07T12:19:08;6.20;;;4.20;;
73170;SDS011;61381;50.118;19.962;2023-05-07T12:24:09;2.30;;;1.92;;
73170;SDS011;61381;50.118;19.962;2023-05-07T12:29:12;5.50;;;4.18;;
73170;SDS011;61381;50.118;19.962;2023-05-07T12:34:13;3.33;;;2.25;;
73170;SDS011;61381;50.118;19.962;2023-05-07T12:39:14;4.20;;;2.78;;
73170;SDS011;61381;50.118;19.962;2023-05-07T12:44:17;3.33;;;2.80;;
73170;SDS011;61381;50.118;19.962;2023-05-07T12:49:18;3.42;;;2.42;;
73170;SDS011;61381;50.118;19.962;2023-05-07T12:54:28;4.40;;;2.85;;
73170;SDS011;61381;50.118;19.962;2023-05-07T12:59:35;4.22;;;3.30;;
73170;SDS011;61381;50.118;19.962;2023-05-07T13:04:37;4.18;;;3.30;;
73170;SDS011;61381;50.118;19.962;2023-05-07T13:09:38;3.55;;;2.42;;
73170;SDS011;61381;50.118;19.962;2023-05-07T13:14:41;4.30;;;3.10;;
73170;SDS011;61381;50.118;19.962;2023-05-07T13:19:42;7.38;;;3.25;;
73170;SDS011;61381;50.118;19.962;2023-05-07T13:24:43;5.53;;;3.20;;
73170;SDS011;61381;50.118;19.962;2023-05-07T13:29:45;4.45;;;2.50;;
73170;SDS011;61381;50.118;19.962;2023-05-07T13:34:46;4.53;;;2.83;;
73170;SDS011;61381;50.118;19.962;2023-05-07T13:39:47;4.22;;;2.50;;
73170;SDS011;61381;50.118;19.962;2023-05-07T13:44:49;4.35;;;3.00;;
73170;SDS011;61381;50.118;19.962;2023-05-07T13:49:50;3.90;;;2.72;;
73170;SDS011;61381;50.118;19.962;2023-05-07T13:54:51;4.90;;;3.17;;
73170;SDS011;61381;50.118;19.962;2023-05-07T13:59:54;4.25;;;3.22;;
73170;SDS011;61381;50.118;19.962;2023-05-07T14:04:55;5.85;;;2.67;;
73170;SDS011;61381;50.118;19.962;2023-05-07T14:09:56;5.78;;;3.60;;
73170;SDS011;61381;50.118;19.962;2023-05-07T14:14:58;3.90;;;3.08;;
73170;SDS011;61381;50.118;19.962;2023-05-07T14:19:59;5.45;;;3.80;;
73170;SDS011;61381;50.118;19.962;2023-05-07T14:25:00;5.07;;;3.25;;
73170;SDS011;61381;50.118;19.962;2023-05-07T14:30:03;5.68;;;3.63;;
73170;SDS011;61381;50.118;19.962;2023-05-07T14:35:04;4.30;;;3.42;;
73170;SDS011;61381;50.118;19.962;2023-05-07T14:40:06;4.25;;;3.22;;
73170;SDS011;61381;50.118;19.962;2023-05-07T14:45:10;6.03;;;2.95;;
73170;SDS011;61381;50.118;19.962;2023-05-07T14:50:11;5.80;;;4.20;;
73170;SDS011;61381;50.118;19.962;2023-05-07T14:55:12;6.45;;;4.57;;
73170;SDS011;61381;50.118;19.962;2023-05-07T15:00:15;7.43;;;3.78;;
73170;SDS011;61381;50.118;19.962;2023-05-07T15:05:16;5.72;;;4.32;;
73170;SDS011;61381;50.118;19.962;2023-05-07T15:10:20;6.82;;;4.25;;
73170;SDS011;61381;50.118;19.962;2023-05-07T15:15:22;5.80;;;4.57;;
73170;SDS011;61381;50.118;19.962;2023-05-07T15:20:23;6.22;;;4.40;;
73170;SDS011;61381;50.118;19.962;2023-05-07T15:25:24;9.98;;;4.78;;
73170;SDS011;61381;50.118;19.962;2023-05-07T15:30:27;7.63;;;5.30;;
73170;SDS011;61381;50.118;19.962;2023-05-07T15:35:28;8.20;;;5.25;;
73170;SDS011;61381;50.118;19.962;2023-05-07T15:40:29;7.30;;;4.93;;
73170;SDS011;61381;50.118;19.962;2023-05-07T15:45:32;7.07;;;4.57;;
73170;SDS011;61381;50.118;19.962;2023-05-07T15:50:33;8.63;;;4.80;;
73170;SDS011;61381;50.118;19.962;2023-05-07T15:55:34;9.18;;;5.00;;
73170;SDS011;61381;50.118;19.962;2023-05-07T16:00:36;5.47;;;3.92;;
73170;SDS011;61381;50.118;19.962;2023-05-07T16:05:38;6.90;;;4.80;;
73170;SDS011;61381;50.118;19.962;2023-05-07T16:10:39;8.55;;;5.50;;
73170;SDS011;61381;50.118;19.962;2023-05-07T16:15:41;8.88;;;5.03;;
73170;SDS011;61381;50.118;19.962;2023-05-07T16:20:42;7.60;;;4.28;;
73170;SDS011;61381;50.118;19.962;2023-05-07T16:25:43;7.43;;;4.38;;
73170;SDS011;61381;50.118;19.962;2023-05-07T16:30:46;6.32;;;4.22;;
73170;SDS011;61381;50.118;19.962;2023-05-07T16:35:50;36.00;;;19.35;;
73170;SDS011;61381;50.118;19.962;2023-05-07T16:40:51;24.23;;;13.20;;
73170;SDS011;61381;50.118;19.962;2023-05-07T16:45:54;20.17;;;10.65;;
73170;SDS011;61381;50.118;19.962;2023-05-07T16:50:55;10.90;;;5.78;;
73170;SDS011;61381;50.118;19.962;2023-05-07T16:55:57;9.98;;;5.47;;
73170;SDS011;61381;50.118;19.962;2023-05-07T17:01:00;11.10;;;5.68;;
73170;SDS011;61381;50.118;19.962;2023-05-07T17:06:01;21.25;;;10.88;;
73170;SDS011;61381;50.118;19.962;2023-05-07T17:11:02;25.17;;;14.88;;
73170;SDS011;61381;50.118;19.962;2023-05-07T17:16:05;18.40;;;12.00;;
73170;SDS011;61381;50.118;19.962;2023-05-07T17:21:06;9.50;;;6.57;;
73170;SDS011;61381;50.118;19.962;2023-05-07T17:26:10;9.63;;;6.78;;
73170;SDS011;61381;50.118;19.962;2023-05-07T17:31:13;11.85;;;4.78;;
73170;SDS011;61381;50.118;19.962;2023-05-07T17:36:14;9.07;;;5.38;;
73170;SDS011;61381;50.118;19.962;2023-05-07T17:41:15;7.82;;;4.97;;
73170;SDS011;61381;50.118;19.962;2023-05-07T17:46:17;10.57;;;6.07;;
73170;SDS011;61381;50.118;19.962;2023-05-07T17:51:18;10.38;;;5.97;;
73170;SDS011;61381;50.118;19.962;2023-05-07T17:56:19;10.05;;;5.88;;
73170;SDS011;61381;50.118;19.962;2023-05-07T18:01:22;11.15;;;6.05;;
73170;SDS011;61381;50.118;19.962;2023-05-07T18:06:23;9.57;;;4.78;;
73170;SDS011;61381;50.118;19.962;2023-05-07T18:11:24;8.48;;;5.63;;
73170;SDS011;61381;50.118;19.962;2023-05-07T18:16:26;11.45;;;7.80;;
73170;SDS011;61381;50.118;19.962;2023-05-07T18:21:27;12.48;;;8.52;;
73170;SDS011;61381;50.118;19.962;2023-05-07T18:26:28;13.80;;;6.18;;
73170;SDS011;61381;50.118;19.962;2023-05-07T18:31:30;10.18;;;6.45;;
73170;SDS011;61381;50.118;19.962;2023-05-07T18:36:31;8.30;;;5.75;;
73170;SDS011;61381;50.118;19.962;2023-05-07T18:41:33;13.15;;;8.05;;
73170;SDS011;61381;50.118;19.962;2023-05-07T18:46:36;12.35;;;5.93;;
73170;SDS011;61381;50.118;19.962;2023-05-07T18:51:37;10.18;;;4.53;;
73170;SDS011;61381;50.118;19.962;2023-05-07T18:56:38;11.25;;;6.40;;
73170;SDS011;61381;50.118;19.962;2023-05-07T19:01:42;11.90;;;7.07;;
73170;SDS011;61381;50.118;19.962;2023-05-07T19:06:43;13.82;;;6.32;;
73170;SDS011;61381;50.118;19.962;2023-05-07T19:11:44;14.85;;;6.85;;
73170;SDS011;61381;50.118;19.962;2023-05-07T19:16:46;14.23;;;7.43;;
73170;SDS011;61381;50.118;19.962;2023-05-07T19:21:47;11.48;;;6.05;;
73170;SDS011;61381;50.118;19.962;2023-05-07T19:26:48;10.73;;;5.97;;
73170;SDS011;61381;50.118;19.962;2023-05-07T19:31:51;11.40;;;6.78;;
73170;SDS011;61381;50.118;19.962;2023-05-07T19:36:52;10.00;;;5.40;;
73170;SDS011;61381;50.118;19.962;2023-05-07T19:41:52;9.02;;;5.28;;
73170;SDS011;61381;50.118;19.962;2023-05-07T19:46:56;10.77;;;6.80;;
73170;SDS011;61381;50.118;19.962;2023-05-07T19:51:58;8.30;;;5.13;;
73170;SDS011;61381;50.118;19.962;2023-05-07T19:56:59;9.25;;;5.20;;
73170;SDS011;61381;50.118;19.962;2023-05-07T20:02:01;9.18;;;5.72;;
73170;SDS011;61381;50.118;19.962;2023-05-07T20:07:02;8.00;;;4.53;;
73170;SDS011;61381;50.118;19.962;2023-05-07T20:12:03;7.68;;;4.40;;
73170;SDS011;61381;50.118;19.962;2023-05-07T20:17:06;7.40;;;4.32;;
73170;SDS011;61381;50.118;19.962;2023-05-07T20:22:07;9.18;;;5.40;;
73170;SDS011;61381;50.118;19.962;2023-05-07T20:27:09;10.10;;;6.88;;
73170;SDS011;61381;50.118;19.962;2023-05-07T20:32:11;9.50;;;5.88;;
73170;SDS011;61381;50.118;19.962;2023-05-07T20:37:12;9.80;;;5.32;;
73170;SDS011;61381;50.118;19.962;2023-05-07T20:42:13;13.75;;;7.25;;
73170;SDS011;61381;50.118;19.962;2023-05-07T20:47:16;9.02;;;6.05;;
73170;SDS011;61381;50.118;19.962;2023-05-07T20:52:17;11.90;;;6.90;;
73170;SDS011;61381;50.118;19.962;2023-05-07T20:57:18;5.80;;;4.00;;
73170;SDS011;61381;50.118;19.962;2023-05-07T21:02:20;8.32;;;4.57;;
73170;SDS011;61381;50.118;19.962;2023-05-07T21:07:21;5.72;;;3.83;;
73170;SDS011;61381;50.118;19.962;2023-05-07T21:12:22;5.78;;;3.38;;
73170;SDS011;61381;50.118;19.962;2023-05-07T21:17:25;6.15;;;3.90;;
73170;SDS011;61381;50.118;19.962;2023-05-07T21:22:26;4.40;;;3.03;;
73170;SDS011;61381;50.118;19.962;2023-05-07T21:27:27;3.47;;;2.47;;
73170;SDS011;61381;50.118;19.962;2023-05-07T21:32:29;4.95;;;3.30;;
73170;SDS011;61381;50.118;19.962;2023-05-07T21:37:30;5.30;;;3.10;;
73170;SDS011;61381;50.118;19.962;2023-05-07T21:42:31;5.25;;;3.42;;
73170;SDS011;61381;50.118;19.962;2023-05-07T21:52:35;5.25;;;3.13;;
73170;SDS011;61381;50.118;19.962;2023-05-07T21:57:36;5.97;;;3.50;;
73170;SDS011;61381;50.118;19.962;2023-05-07T22:02:38;4.32;;;2.70;;
73170;SDS011;61381;50.118;19.962;2023-05-07T22:07:39;3.92;;;2.90;;
73170;SDS011;61381;50.118;19.962;2023-05-07T22:17:42;6.65;;;3.00;;
73170;SDS011;61381;50.118;19.962;2023-05-07T22:22:44;5.20;;;2.70;;
73170;SDS011;61381;50.118;19.962;2023-05-07T22:27:46;6.75;;;4.47;;
73170;SDS011;61381;50.118;19.962;2023-05-07T22:32:49;7.45;;;3.15;;
73170;SDS011;61381;50.118;19.962;2023-05-07T22:37:51;6.00;;;3.38;;
73170;SDS011;61381;50.118;19.962;2023-05-07T22:47:54;5.93;;;3.33;;
73170;SDS011;61381;50.118;19.962;2023-05-07T22:52:55;5.95;;;4.20;;
73170;SDS011;61381;50.118;19.962;2023-05-07T23:02:58;3.95;;;3.15;;
73170;SDS011;61381;50.118;19.962;2023-05-07T23:07:59;7.05;;;4.05;;
73170;SDS011;61381;50.118;19.962;2023-05-07T23:18:02;8.77;;;3.78;;
73170;SDS011;61381;50.118;19.962;2023-05-07T23:23:03;6.40;;;3.30;;
73170;SDS011;61381;50.118;19.962;2023-05-07T23:33:06;6.20;;;3.67;;
73170;SDS011;61381;50.118;19.962;2023-05-07T23:38:07;6.72;;;3.80;;
73170;SDS011;61381;50.118;19.962;2023-05-07T23:48:10;4.13;;;2.50;;
73170;SDS011;61381;50.118;19.962;2023-05-07T23:53:11;5.18;;;3.33;;
